TBB weather

Dong Tac Airport
Tuy Hoa, Vinh Long Province, Vietnam

Public forecast

Using degrees Celsius for public forecast. Weather courtesy of forecast.io.

Closest aviation weather report (METAR) to Dong Tac Airport

Closest report is Cam Ranh Airport, 63.5 nm (117.6 km) S. Retrieved 2019/10/16 10:30 UTC (0 seconds ago):

VVCR 161030Z 06011KT 9999 FEW013 SCT050 29/25 Q1011 NOSIG

Closest aviation forecast (TAF) to Dong Tac Airport

Closest forecast is Cam Ranh Airport, 63.5 nm (117.6 km) S. Retrieved 2019/10/16 06:00 UTC (4 hours ago):

TAF VVCI 160500Z 1606/1706 07008KT 8000 SCT017 BKN050 TAF VVCR 160500Z 1606/1706 01008KT 9999 SCT013 SCT050 TEMPO 1612/1616 5000 TSRA BKN013 FEW015CB BKN050 TEMPO 1622/1702 5000 RA BR BKN013 BKN040